BNG weather

Banning Municipal Airport
Banning, California, United States

Public forecast

Using degrees Fahrenheit for public forecast. Weather courtesy of forecast.io.

Closest aviation weather report (METAR) to Banning Municipal Airport

Closest report is Palm Springs International Airport, 18.0 nm (33.4 km) ESE. Retrieved 2019/12/10 17:53 UTC (42 minutes ago):

KPSP 101753Z 00000KT 10SM CLR 20/04 A3025 RMK AO2 SLP245 T02000039 10200 20083 51012

Closest aviation forecast (TAF) to Banning Municipal Airport

Closest forecast is Palm Springs International Airport, 18.0 nm (33.4 km) ESE. Retrieved 2019/12/10 18:51 UTC (0 seconds ago):

TAF KPSP 101720Z 1018/1118 VRB05KT P6SM SCT250